sensor_id;sensor_type;location;lat;lon;timestamp;P1;durP1;ratioP1;P2;durP2;ratioP2
23995;SDS011;12207;50.076;8.848;2023-10-09T00:01:04;377.25;;;91.97;;
23995;SDS011;12207;50.076;8.848;2023-10-09T00:03:38;401.35;;;99.65;;
23995;SDS011;12207;50.076;8.848;2023-10-09T00:06:06;394.02;;;94.45;;
23995;SDS011;12207;50.076;8.848;2023-10-09T00:08:32;373.35;;;94.10;;
23995;SDS011;12207;50.076;8.848;2023-10-09T00:11:02;380.63;;;95.68;;
23995;SDS011;12207;50.076;8.848;2023-10-09T00:13:48;376.20;;;95.78;;
23995;SDS011;12207;50.076;8.848;2023-10-09T00:16:18;378.35;;;97.28;;
23995;SDS011;12207;50.076;8.848;2023-10-09T00:19:02;384.83;;;95.25;;
23995;SDS011;12207;50.076;8.848;2023-10-09T00:21:44;403.77;;;96.85;;
23995;SDS011;12207;50.076;8.848;2023-10-09T00:24:11;380.67;;;93.43;;
23995;SDS011;12207;50.076;8.848;2023-10-09T00:26:53;388.52;;;94.55;;
23995;SDS011;12207;50.076;8.848;2023-10-09T00:29:39;387.20;;;93.75;;
23995;SDS011;12207;50.076;8.848;2023-10-09T00:32:17;383.60;;;94.10;;
23995;SDS011;12207;50.076;8.848;2023-10-09T00:34:48;370.15;;;93.78;;
23995;SDS011;12207;50.076;8.848;2023-10-09T00:37:15;376.65;;;94.25;;
23995;SDS011;12207;50.076;8.848;2023-10-09T00:39:42;395.95;;;98.75;;
23995;SDS011;12207;50.076;8.848;2023-10-09T00:42:12;380.60;;;96.35;;
23995;SDS011;12207;50.076;8.848;2023-10-09T00:44:52;388.35;;;93.90;;
23995;SDS011;12207;50.076;8.848;2023-10-09T00:47:19;393.60;;;93.88;;
23995;SDS011;12207;50.076;8.848;2023-10-09T00:49:46;384.88;;;95.78;;
23995;SDS011;12207;50.076;8.848;2023-10-09T00:52:29;391.60;;;96.43;;
23995;SDS011;12207;50.076;8.848;2023-10-09T00:55:04;371.92;;;91.45;;
23995;SDS011;12207;50.076;8.848;2023-10-09T00:57:46;388.45;;;93.38;;
23995;SDS011;12207;50.076;8.848;2023-10-09T01:00:16;375.63;;;92.13;;
23995;SDS011;12207;50.076;8.848;2023-10-09T01:03:19;386.77;;;90.43;;
23995;SDS011;12207;50.076;8.848;2023-10-09T01:05:48;369.45;;;91.32;;
23995;SDS011;12207;50.076;8.848;2023-10-09T01:08:28;388.00;;;92.80;;
23995;SDS011;12207;50.076;8.848;2023-10-09T01:10:54;382.05;;;91.80;;
23995;SDS011;12207;50.076;8.848;2023-10-09T01:13:22;397.58;;;93.78;;
23995;SDS011;12207;50.076;8.848;2023-10-09T01:16:04;384.48;;;90.57;;
23995;SDS011;12207;50.076;8.848;2023-10-09T01:18:41;398.42;;;96.45;;
23995;SDS011;12207;50.076;8.848;2023-10-09T01:21:08;399.05;;;95.32;;
23995;SDS011;12207;50.076;8.848;2023-10-09T01:23:40;399.85;;;97.93;;
23995;SDS011;12207;50.076;8.848;2023-10-09T01:26:24;387.25;;;95.72;;
23995;SDS011;12207;50.076;8.848;2023-10-09T01:28:51;376.42;;;94.03;;
23995;SDS011;12207;50.076;8.848;2023-10-09T01:31:23;406.83;;;97.47;;
23995;SDS011;12207;50.076;8.848;2023-10-09T01:33:52;382.65;;;94.18;;
23995;SDS011;12207;50.076;8.848;2023-10-09T01:36:24;391.23;;;96.43;;
23995;SDS011;12207;50.076;8.848;2023-10-09T01:38:58;375.17;;;93.43;;
23995;SDS011;12207;50.076;8.848;2023-10-09T01:41:27;373.42;;;92.28;;
23995;SDS011;12207;50.076;8.848;2023-10-09T01:43:59;379.33;;;92.05;;
23995;SDS011;12207;50.076;8.848;2023-10-09T01:46:35;372.58;;;91.70;;
23995;SDS011;12207;50.076;8.848;2023-10-09T01:49:01;378.33;;;92.88;;
23995;SDS011;12207;50.076;8.848;2023-10-09T01:51:34;380.55;;;94.95;;
23995;SDS011;12207;50.076;8.848;2023-10-09T01:54:02;378.83;;;95.22;;
23995;SDS011;12207;50.076;8.848;2023-10-09T01:56:28;387.80;;;95.88;;
23995;SDS011;12207;50.076;8.848;2023-10-09T01:59:01;382.17;;;93.47;;
23995;SDS011;12207;50.076;8.848;2023-10-09T02:01:30;392.35;;;98.65;;
23995;SDS011;12207;50.076;8.848;2023-10-09T02:03:58;386.42;;;95.93;;
23995;SDS011;12207;50.076;8.848;2023-10-09T02:06:31;384.75;;;96.60;;
23995;SDS011;12207;50.076;8.848;2023-10-09T02:08:57;381.38;;;93.45;;
23995;SDS011;12207;50.076;8.848;2023-10-09T02:11:24;406.00;;;98.57;;
23995;SDS011;12207;50.076;8.848;2023-10-09T02:14:06;366.90;;;91.32;;
23995;SDS011;12207;50.076;8.848;2023-10-09T02:16:47;380.38;;;93.18;;
23995;SDS011;12207;50.076;8.848;2023-10-09T02:19:34;373.50;;;91.25;;
23995;SDS011;12207;50.076;8.848;2023-10-09T02:22:01;392.67;;;95.38;;
23995;SDS011;12207;50.076;8.848;2023-10-09T02:24:45;379.17;;;92.97;;
23995;SDS011;12207;50.076;8.848;2023-10-09T02:27:24;375.52;;;90.35;;
23995;SDS011;12207;50.076;8.848;2023-10-09T02:30:10;385.17;;;94.60;;
23995;SDS011;12207;50.076;8.848;2023-10-09T02:32:55;378.85;;;95.57;;
23995;SDS011;12207;50.076;8.848;2023-10-09T02:35:34;387.95;;;93.47;;
23995;SDS011;12207;50.076;8.848;2023-10-09T02:38:03;374.88;;;95.07;;
23995;SDS011;12207;50.076;8.848;2023-10-09T02:40:32;377.85;;;92.47;;
23995;SDS011;12207;50.076;8.848;2023-10-09T02:43:25;383.95;;;91.22;;
23995;SDS011;12207;50.076;8.848;2023-10-09T02:45:52;372.17;;;93.25;;
23995;SDS011;12207;50.076;8.848;2023-10-09T02:48:18;385.05;;;93.95;;
23995;SDS011;12207;50.076;8.848;2023-10-09T02:50:46;381.48;;;94.43;;
23995;SDS011;12207;50.076;8.848;2023-10-09T02:53:12;383.10;;;93.20;;
23995;SDS011;12207;50.076;8.848;2023-10-09T02:55:44;368.70;;;92.38;;
23995;SDS011;12207;50.076;8.848;2023-10-09T02:58:37;375.33;;;92.68;;
23995;SDS011;12207;50.076;8.848;2023-10-09T03:01:11;375.17;;;92.32;;
23995;SDS011;12207;50.076;8.848;2023-10-09T03:03:39;389.02;;;92.10;;
23995;SDS011;12207;50.076;8.848;2023-10-09T03:06:12;383.90;;;94.43;;
23995;SDS011;12207;50.076;8.848;2023-10-09T03:08:48;377.67;;;93.10;;
23995;SDS011;12207;50.076;8.848;2023-10-09T03:11:14;390.27;;;93.05;;
23995;SDS011;12207;50.076;8.848;2023-10-09T03:13:41;371.27;;;95.13;;
23995;SDS011;12207;50.076;8.848;2023-10-09T03:16:08;372.23;;;92.43;;
23995;SDS011;12207;50.076;8.848;2023-10-09T03:18:44;382.98;;;94.00;;
23995;SDS011;12207;50.076;8.848;2023-10-09T03:21:19;379.40;;;98.00;;
23995;SDS011;12207;50.076;8.848;2023-10-09T03:23:46;397.30;;;103.80;;
23995;SDS011;12207;50.076;8.848;2023-10-09T03:26:16;394.98;;;94.78;;
23995;SDS011;12207;50.076;8.848;2023-10-09T03:28:47;381.58;;;93.72;;
23995;SDS011;12207;50.076;8.848;2023-10-09T03:31:14;384.63;;;92.40;;
23995;SDS011;12207;50.076;8.848;2023-10-09T03:33:40;391.20;;;96.72;;
23995;SDS011;12207;50.076;8.848;2023-10-09T03:36:07;379.88;;;93.47;;
23995;SDS011;12207;50.076;8.848;2023-10-09T03:38:36;379.10;;;91.80;;
23995;SDS011;12207;50.076;8.848;2023-10-09T03:41:06;375.83;;;95.97;;
23995;SDS011;12207;50.076;8.848;2023-10-09T03:43:35;380.52;;;93.00;;
23995;SDS011;12207;50.076;8.848;2023-10-09T03:46:10;377.73;;;95.22;;
23995;SDS011;12207;50.076;8.848;2023-10-09T03:48:50;375.02;;;93.70;;
23995;SDS011;12207;50.076;8.848;2023-10-09T03:51:17;378.30;;;93.13;;
23995;SDS011;12207;50.076;8.848;2023-10-09T03:53:50;382.55;;;97.70;;
23995;SDS011;12207;50.076;8.848;2023-10-09T03:56:19;387.55;;;98.65;;
23995;SDS011;12207;50.076;8.848;2023-10-09T03:58:49;380.10;;;95.63;;
23995;SDS011;12207;50.076;8.848;2023-10-09T04:01:18;371.05;;;88.53;;
23995;SDS011;12207;50.076;8.848;2023-10-09T04:03:54;376.95;;;93.40;;
23995;SDS011;12207;50.076;8.848;2023-10-09T04:06:25;382.33;;;92.75;;
23995;SDS011;12207;50.076;8.848;2023-10-09T04:08:53;383.38;;;91.28;;
23995;SDS011;12207;50.076;8.848;2023-10-09T04:11:20;394.60;;;99.32;;
23995;SDS011;12207;50.076;8.848;2023-10-09T04:13:49;379.90;;;95.35;;
23995;SDS011;12207;50.076;8.848;2023-10-09T04:16:18;377.85;;;91.72;;
23995;SDS011;12207;50.076;8.848;2023-10-09T04:18:57;376.42;;;93.53;;
23995;SDS011;12207;50.076;8.848;2023-10-09T04:21:24;366.00;;;91.78;;
23995;SDS011;12207;50.076;8.848;2023-10-09T04:24:03;369.73;;;92.78;;
23995;SDS011;12207;50.076;8.848;2023-10-09T04:26:42;380.85;;;94.32;;
23995;SDS011;12207;50.076;8.848;2023-10-09T04:29:15;399.55;;;97.30;;
23995;SDS011;12207;50.076;8.848;2023-10-09T04:32:00;376.33;;;91.50;;
23995;SDS011;12207;50.076;8.848;2023-10-09T04:34:26;393.83;;;94.72;;
23995;SDS011;12207;50.076;8.848;2023-10-09T04:36:53;370.77;;;91.90;;
23995;SDS011;12207;50.076;8.848;2023-10-09T04:39:39;382.83;;;94.32;;
23995;SDS011;12207;50.076;8.848;2023-10-09T04:42:12;388.00;;;94.53;;
23995;SDS011;12207;50.076;8.848;2023-10-09T04:44:48;407.02;;;96.40;;
23995;SDS011;12207;50.076;8.848;2023-10-09T04:47:30;372.13;;;92.15;;
23995;SDS011;12207;50.076;8.848;2023-10-09T04:50:06;391.50;;;95.68;;
23995;SDS011;12207;50.076;8.848;2023-10-09T04:52:35;367.17;;;90.28;;
23995;SDS011;12207;50.076;8.848;2023-10-09T04:55:01;404.38;;;98.40;;
23995;SDS011;12207;50.076;8.848;2023-10-09T04:57:47;370.52;;;92.40;;
23995;SDS011;12207;50.076;8.848;2023-10-09T05:00:26;376.38;;;93.30;;
23995;SDS011;12207;50.076;8.848;2023-10-09T05:08:07;372.63;;;92.38;;
23995;SDS011;12207;50.076;8.848;2023-10-09T05:10:53;371.00;;;89.65;;
23995;SDS011;12207;50.076;8.848;2023-10-09T05:13:30;374.02;;;96.07;;
23995;SDS011;12207;50.076;8.848;2023-10-09T05:16:05;375.02;;;90.90;;
23995;SDS011;12207;50.076;8.848;2023-10-09T05:18:47;371.42;;;92.32;;
23995;SDS011;12207;50.076;8.848;2023-10-09T05:21:33;378.40;;;92.68;;
23995;SDS011;12207;50.076;8.848;2023-10-09T05:24:09;377.00;;;92.90;;
23995;SDS011;12207;50.076;8.848;2023-10-09T05:26:39;383.88;;;94.90;;
23995;SDS011;12207;50.076;8.848;2023-10-09T05:29:24;381.30;;;92.38;;
23995;SDS011;12207;50.076;8.848;2023-10-09T05:31:54;369.33;;;90.72;;
23995;SDS011;12207;50.076;8.848;2023-10-09T05:34:44;367.63;;;89.68;;
23995;SDS011;12207;50.076;8.848;2023-10-09T05:39:58;379.35;;;92.20;;
23995;SDS011;12207;50.076;8.848;2023-10-09T05:42:26;377.80;;;91.40;;
23995;SDS011;12207;50.076;8.848;2023-10-09T05:45:05;371.85;;;93.32;;
23995;SDS011;12207;50.076;8.848;2023-10-09T05:47:42;376.35;;;93.88;;
23995;SDS011;12207;50.076;8.848;2023-10-09T05:50:52;386.63;;;93.10;;
23995;SDS011;12207;50.076;8.848;2023-10-09T05:53:37;376.73;;;94.32;;
23995;SDS011;12207;50.076;8.848;2023-10-09T05:56:24;387.38;;;95.78;;
23995;SDS011;12207;50.076;8.848;2023-10-09T05:59:08;374.05;;;94.25;;
23995;SDS011;12207;50.076;8.848;2023-10-09T06:02:09;373.00;;;89.63;;
23995;SDS011;12207;50.076;8.848;2023-10-09T06:04:54;379.42;;;94.55;;
23995;SDS011;12207;50.076;8.848;2023-10-09T06:07:20;375.88;;;92.50;;
23995;SDS011;12207;50.076;8.848;2023-10-09T06:10:05;385.13;;;94.47;;
23995;SDS011;12207;50.076;8.848;2023-10-09T06:12:52;363.90;;;91.97;;
23995;SDS011;12207;50.076;8.848;2023-10-09T06:15:28;371.27;;;92.53;;
23995;SDS011;12207;50.076;8.848;2023-10-09T06:18:10;376.15;;;94.30;;
23995;SDS011;12207;50.076;8.848;2023-10-09T06:20:57;374.92;;;91.63;;
23995;SDS011;12207;50.076;8.848;2023-10-09T06:23:35;387.38;;;94.40;;
23995;SDS011;12207;50.076;8.848;2023-10-09T06:26:20;380.75;;;96.30;;
23995;SDS011;12207;50.076;8.848;2023-10-09T06:28:49;387.38;;;95.20;;
23995;SDS011;12207;50.076;8.848;2023-10-09T06:31:36;393.02;;;93.60;;
23995;SDS011;12207;50.076;8.848;2023-10-09T06:34:22;393.90;;;96.68;;
23995;SDS011;12207;50.076;8.848;2023-10-09T06:36:58;384.13;;;96.45;;
23995;SDS011;12207;50.076;8.848;2023-10-09T06:39:42;386.27;;;100.10;;
23995;SDS011;12207;50.076;8.848;2023-10-09T06:42:21;380.05;;;94.88;;
23995;SDS011;12207;50.076;8.848;2023-10-09T06:45:02;374.85;;;94.72;;
23995;SDS011;12207;50.076;8.848;2023-10-09T06:47:49;385.60;;;95.28;;
23995;SDS011;12207;50.076;8.848;2023-10-09T06:50:22;391.55;;;93.50;;
23995;SDS011;12207;50.076;8.848;2023-10-09T06:52:51;374.98;;;93.80;;
23995;SDS011;12207;50.076;8.848;2023-10-09T06:55:36;391.85;;;94.93;;
23995;SDS011;12207;50.076;8.848;2023-10-09T07:01:06;389.20;;;98.82;;
23995;SDS011;12207;50.076;8.848;2023-10-09T07:03:50;399.30;;;98.60;;
23995;SDS011;12207;50.076;8.848;2023-10-09T07:06:19;391.83;;;98.28;;
23995;SDS011;12207;50.076;8.848;2023-10-09T07:08:50;395.45;;;98.40;;
23995;SDS011;12207;50.076;8.848;2023-10-09T07:11:32;384.38;;;98.25;;
23995;SDS011;12207;50.076;8.848;2023-10-09T07:16:57;402.20;;;102.20;;
23995;SDS011;12207;50.076;8.848;2023-10-09T07:20:09;392.58;;;101.22;;
23995;SDS011;12207;50.076;8.848;2023-10-09T07:22:55;391.88;;;99.72;;
23995;SDS011;12207;50.076;8.848;2023-10-09T07:25:38;414.95;;;102.07;;
23995;SDS011;12207;50.076;8.848;2023-10-09T07:28:20;410.20;;;105.43;;
23995;SDS011;12207;50.076;8.848;2023-10-09T07:31:07;398.15;;;101.88;;
23995;SDS011;12207;50.076;8.848;2023-10-09T07:33:49;403.13;;;104.55;;
23995;SDS011;12207;50.076;8.848;2023-10-09T07:36:21;403.50;;;104.22;;
23995;SDS011;12207;50.076;8.848;2023-10-09T07:38:59;389.17;;;104.97;;
23995;SDS011;12207;50.076;8.848;2023-10-09T07:41:38;400.98;;;102.57;;
23995;SDS011;12207;50.076;8.848;2023-10-09T07:44:20;396.20;;;103.38;;
23995;SDS011;12207;50.076;8.848;2023-10-09T07:47:01;382.27;;;101.70;;
23995;SDS011;12207;50.076;8.848;2023-10-09T07:49:47;379.45;;;94.18;;
23995;SDS011;12207;50.076;8.848;2023-10-09T07:52:16;381.88;;;100.15;;
23995;SDS011;12207;50.076;8.848;2023-10-09T07:54:43;396.85;;;103.63;;
23995;SDS011;12207;50.076;8.848;2023-10-09T07:57:16;407.50;;;102.65;;
23995;SDS011;12207;50.076;8.848;2023-10-09T07:59:42;412.58;;;105.70;;
23995;SDS011;12207;50.076;8.848;2023-10-09T08:02:26;400.50;;;104.85;;
23995;SDS011;12207;50.076;8.848;2023-10-09T08:04:59;400.35;;;105.00;;
23995;SDS011;12207;50.076;8.848;2023-10-09T08:07:43;400.70;;;104.40;;
23995;SDS011;12207;50.076;8.848;2023-10-09T08:10:20;398.27;;;115.68;;
23995;SDS011;12207;50.076;8.848;2023-10-09T08:12:46;383.70;;;102.10;;
23995;SDS011;12207;50.076;8.848;2023-10-09T08:15:16;401.50;;;102.05;;
23995;SDS011;12207;50.076;8.848;2023-10-09T08:17:46;389.55;;;100.07;;
23995;SDS011;12207;50.076;8.848;2023-10-09T08:20:18;399.02;;;97.00;;
23995;SDS011;12207;50.076;8.848;2023-10-09T08:22:51;384.80;;;100.97;;
23995;SDS011;12207;50.076;8.848;2023-10-09T08:25:23;421.33;;;104.25;;
23995;SDS011;12207;50.076;8.848;2023-10-09T08:28:01;398.50;;;103.82;;
23995;SDS011;12207;50.076;8.848;2023-10-09T08:30:39;381.27;;;101.75;;
23995;SDS011;12207;50.076;8.848;2023-10-09T08:33:09;388.00;;;105.97;;
23995;SDS011;12207;50.076;8.848;2023-10-09T08:35:50;388.77;;;104.30;;
23995;SDS011;12207;50.076;8.848;2023-10-09T08:38:20;413.00;;;106.63;;
23995;SDS011;12207;50.076;8.848;2023-10-09T08:40:50;378.70;;;100.40;;
23995;SDS011;12207;50.076;8.848;2023-10-09T08:43:23;399.38;;;108.10;;
23995;SDS011;12207;50.076;8.848;2023-10-09T08:45:50;391.88;;;102.25;;
23995;SDS011;12207;50.076;8.848;2023-10-09T08:48:26;394.70;;;101.65;;
23995;SDS011;12207;50.076;8.848;2023-10-09T08:50:53;420.52;;;106.03;;
23995;SDS011;12207;50.076;8.848;2023-10-09T08:53:20;401.17;;;104.00;;
23995;SDS011;12207;50.076;8.848;2023-10-09T08:55:52;389.03;;;105.57;;
23995;SDS011;12207;50.076;8.848;2023-10-09T08:58:18;411.35;;;107.85;;
23995;SDS011;12207;50.076;8.848;2023-10-09T09:00:51;396.85;;;105.32;;
23995;SDS011;12207;50.076;8.848;2023-10-09T09:03:20;410.70;;;107.15;;
23995;SDS011;12207;50.076;8.848;2023-10-09T09:06:00;389.55;;;103.90;;
23995;SDS011;12207;50.076;8.848;2023-10-09T09:08:27;392.65;;;101.70;;
23995;SDS011;12207;50.076;8.848;2023-10-09T09:11:05;403.80;;;108.40;;
23995;SDS011;12207;50.076;8.848;2023-10-09T09:13:42;394.60;;;107.18;;
23995;SDS011;12207;50.076;8.848;2023-10-09T09:19:01;397.33;;;109.82;;
23995;SDS011;12207;50.076;8.848;2023-10-09T09:21:32;409.02;;;112.47;;
23995;SDS011;12207;50.076;8.848;2023-10-09T09:24:10;418.30;;;117.03;;
23995;SDS011;12207;50.076;8.848;2023-10-09T09:26:46;421.98;;;114.38;;
23995;SDS011;12207;50.076;8.848;2023-10-09T09:32:04;416.90;;;112.93;;
23995;SDS011;12207;50.076;8.848;2023-10-09T09:34:45;442.95;;;115.03;;
23995;SDS011;12207;50.076;8.848;2023-10-09T09:37:21;437.33;;;117.53;;
23995;SDS011;12207;50.076;8.848;2023-10-09T09:40:07;391.83;;;108.60;;
23995;SDS011;12207;50.076;8.848;2023-10-09T09:42:43;401.05;;;110.32;;
23995;SDS011;12207;50.076;8.848;2023-10-09T09:45:15;408.90;;;111.68;;
23995;SDS011;12207;50.076;8.848;2023-10-09T09:47:48;419.10;;;114.35;;
23995;SDS011;12207;50.076;8.848;2023-10-09T09:50:19;410.25;;;116.30;;
23995;SDS011;12207;50.076;8.848;2023-10-09T09:52:54;416.52;;;114.93;;
23995;SDS011;12207;50.076;8.848;2023-10-09T09:55:23;404.10;;;113.72;;
23995;SDS011;12207;50.076;8.848;2023-10-09T09:57:57;404.92;;;114.55;;
23995;SDS011;12207;50.076;8.848;2023-10-09T10:00:25;406.60;;;112.55;;
23995;SDS011;12207;50.076;8.848;2023-10-09T10:03:10;389.75;;;113.15;;
23995;SDS011;12207;50.076;8.848;2023-10-09T10:05:43;406.38;;;110.72;;
23995;SDS011;12207;50.076;8.848;2023-10-09T10:08:14;409.67;;;122.13;;
23995;SDS011;12207;50.076;8.848;2023-10-09T10:10:45;414.80;;;124.40;;
23995;SDS011;12207;50.076;8.848;2023-10-09T10:13:14;396.65;;;119.43;;
23995;SDS011;12207;50.076;8.848;2023-10-09T10:18:52;433.67;;;125.85;;
23995;SDS011;12207;50.076;8.848;2023-10-09T10:21:25;417.48;;;115.78;;
23995;SDS011;12207;50.076;8.848;2023-10-09T10:29:43;429.20;;;131.35;;
23995;SDS011;12207;50.076;8.848;2023-10-09T10:32:15;410.73;;;117.57;;
23995;SDS011;12207;50.076;8.848;2023-10-09T10:37:37;405.95;;;126.30;;
23995;SDS011;12207;50.076;8.848;2023-10-09T10:40:24;419.35;;;128.93;;
23995;SDS011;12207;50.076;8.848;2023-10-09T10:43:04;406.30;;;125.53;;
23995;SDS011;12207;50.076;8.848;2023-10-09T10:46:00;407.48;;;126.65;;
23995;SDS011;12207;50.076;8.848;2023-10-09T10:48:35;418.60;;;124.65;;
23995;SDS011;12207;50.076;8.848;2023-10-09T10:51:04;406.25;;;124.85;;
23995;SDS011;12207;50.076;8.848;2023-10-09T10:53:30;403.92;;;124.82;;
23995;SDS011;12207;50.076;8.848;2023-10-09T10:56:17;406.92;;;126.50;;
23995;SDS011;12207;50.076;8.848;2023-10-09T10:58:53;402.13;;;129.15;;
23995;SDS011;12207;50.076;8.848;2023-10-09T11:01:32;419.67;;;131.55;;
23995;SDS011;12207;50.076;8.848;2023-10-09T11:04:17;406.55;;;128.30;;
23995;SDS011;12207;50.076;8.848;2023-10-09T11:06:57;408.67;;;132.38;;
23995;SDS011;12207;50.076;8.848;2023-10-09T11:09:57;411.13;;;124.35;;
23995;SDS011;12207;50.076;8.848;2023-10-09T11:15:37;417.38;;;127.28;;
23995;SDS011;12207;50.076;8.848;2023-10-09T11:18:10;431.52;;;141.70;;
23995;SDS011;12207;50.076;8.848;2023-10-09T11:20:44;419.27;;;135.32;;
23995;SDS011;12207;50.076;8.848;2023-10-09T11:23:27;433.08;;;136.82;;
23995;SDS011;12207;50.076;8.848;2023-10-09T11:26:00;414.40;;;133.43;;
23995;SDS011;12207;50.076;8.848;2023-10-09T11:28:46;424.40;;;136.18;;
23995;SDS011;12207;50.076;8.848;2023-10-09T11:31:38;414.27;;;136.20;;
23995;SDS011;12207;50.076;8.848;2023-10-09T11:34:17;436.63;;;140.93;;
23995;SDS011;12207;50.076;8.848;2023-10-09T11:37:01;429.10;;;135.30;;
23995;SDS011;12207;50.076;8.848;2023-10-09T11:39:32;416.45;;;133.95;;
23995;SDS011;12207;50.076;8.848;2023-10-09T11:42:00;399.95;;;127.35;;
23995;SDS011;12207;50.076;8.848;2023-10-09T11:47:04;414.85;;;134.50;;
23995;SDS011;12207;50.076;8.848;2023-10-09T11:52:55;420.85;;;132.00;;
23995;SDS011;12207;50.076;8.848;2023-10-09T11:55:55;444.75;;;139.93;;
23995;SDS011;12207;50.076;8.848;2023-10-09T11:58:24;431.10;;;140.30;;
23995;SDS011;12207;50.076;8.848;2023-10-09T12:03:22;433.48;;;143.45;;
23995;SDS011;12207;50.076;8.848;2023-10-09T12:08:29;454.23;;;150.63;;
23995;SDS011;12207;50.076;8.848;2023-10-09T12:10:57;427.42;;;142.43;;
23995;SDS011;12207;50.076;8.848;2023-10-09T12:13:23;415.10;;;135.77;;
23995;SDS011;12207;50.076;8.848;2023-10-09T12:15:50;415.50;;;133.13;;
23995;SDS011;12207;50.076;8.848;2023-10-09T12:18:19;424.67;;;137.07;;
23995;SDS011;12207;50.076;8.848;2023-10-09T12:20:47;416.08;;;143.45;;
23995;SDS011;12207;50.076;8.848;2023-10-09T12:23:17;431.35;;;135.00;;
23995;SDS011;12207;50.076;8.848;2023-10-09T12:25:44;422.42;;;136.68;;
23995;SDS011;12207;50.076;8.848;2023-10-09T12:28:13;409.75;;;141.23;;
23995;SDS011;12207;50.076;8.848;2023-10-09T12:30:48;437.27;;;138.73;;
23995;SDS011;12207;50.076;8.848;2023-10-09T12:33:18;422.95;;;140.02;;
23995;SDS011;12207;50.076;8.848;2023-10-09T12:35:44;407.90;;;133.40;;
23995;SDS011;12207;50.076;8.848;2023-10-09T12:38:14;421.75;;;142.90;;
23995;SDS011;12207;50.076;8.848;2023-10-09T12:40:44;418.33;;;140.10;;
23995;SDS011;12207;50.076;8.848;2023-10-09T12:43:19;437.17;;;135.57;;
23995;SDS011;12207;50.076;8.848;2023-10-09T12:45:48;429.30;;;151.32;;
23995;SDS011;12207;50.076;8.848;2023-10-09T12:48:14;421.75;;;144.63;;
23995;SDS011;12207;50.076;8.848;2023-10-09T12:50:40;425.67;;;140.38;;
23995;SDS011;12207;50.076;8.848;2023-10-09T12:53:07;418.73;;;132.60;;
23995;SDS011;12207;50.076;8.848;2023-10-09T12:55:37;411.63;;;134.32;;
23995;SDS011;12207;50.076;8.848;2023-10-09T12:58:10;415.75;;;135.85;;
23995;SDS011;12207;50.076;8.848;2023-10-09T13:00:40;421.30;;;131.30;;
23995;SDS011;12207;50.076;8.848;2023-10-09T13:03:14;421.40;;;137.20;;
23995;SDS011;12207;50.076;8.848;2023-10-09T13:05:45;415.38;;;129.10;;
23995;SDS011;12207;50.076;8.848;2023-10-09T13:08:25;411.13;;;137.90;;
23995;SDS011;12207;50.076;8.848;2023-10-09T13:11:08;410.45;;;137.90;;
23995;SDS011;12207;50.076;8.848;2023-10-09T13:13:39;409.88;;;131.48;;
23995;SDS011;12207;50.076;8.848;2023-10-09T13:16:12;411.83;;;144.73;;
23995;SDS011;12207;50.076;8.848;2023-10-09T13:18:55;409.60;;;129.30;;
23995;SDS011;12207;50.076;8.848;2023-10-09T13:21:24;417.80;;;144.98;;
23995;SDS011;12207;50.076;8.848;2023-10-09T13:23:52;410.80;;;136.77;;
23995;SDS011;12207;50.076;8.848;2023-10-09T13:26:22;427.63;;;135.73;;
23995;SDS011;12207;50.076;8.848;2023-10-09T13:28:51;417.05;;;141.68;;
23995;SDS011;12207;50.076;8.848;2023-10-09T13:31:17;412.95;;;141.82;;
23995;SDS011;12207;50.076;8.848;2023-10-09T13:33:46;427.63;;;137.77;;
23995;SDS011;12207;50.076;8.848;2023-10-09T13:36:13;435.98;;;139.10;;
23995;SDS011;12207;50.076;8.848;2023-10-09T13:38:56;403.88;;;126.68;;
23995;SDS011;12207;50.076;8.848;2023-10-09T13:41:48;413.55;;;147.93;;
23995;SDS011;12207;50.076;8.848;2023-10-09T13:44:18;431.15;;;130.80;;
23995;SDS011;12207;50.076;8.848;2023-10-09T13:46:47;409.85;;;126.70;;
23995;SDS011;12207;50.076;8.848;2023-10-09T13:49:15;406.52;;;126.93;;
23995;SDS011;12207;50.076;8.848;2023-10-09T13:51:41;421.33;;;130.80;;
23995;SDS011;12207;50.076;8.848;2023-10-09T13:54:10;419.63;;;133.48;;
23995;SDS011;12207;50.076;8.848;2023-10-09T13:56:45;410.98;;;126.07;;
23995;SDS011;12207;50.076;8.848;2023-10-09T13:59:11;418.58;;;133.60;;
23995;SDS011;12207;50.076;8.848;2023-10-09T14:01:38;413.40;;;138.75;;
23995;SDS011;12207;50.076;8.848;2023-10-09T14:04:04;419.33;;;132.85;;
23995;SDS011;12207;50.076;8.848;2023-10-09T14:06:32;408.60;;;124.18;;
23995;SDS011;12207;50.076;8.848;2023-10-09T14:08:59;418.20;;;135.50;;
23995;SDS011;12207;50.076;8.848;2023-10-09T14:11:34;421.85;;;133.40;;
23995;SDS011;12207;50.076;8.848;2023-10-09T14:14:03;418.55;;;130.45;;
23995;SDS011;12207;50.076;8.848;2023-10-09T14:16:34;414.73;;;138.35;;
23995;SDS011;12207;50.076;8.848;2023-10-09T14:19:05;427.17;;;132.98;;
23995;SDS011;12207;50.076;8.848;2023-10-09T14:21:33;403.73;;;125.10;;
23995;SDS011;12207;50.076;8.848;2023-10-09T14:24:03;415.45;;;140.50;;
23995;SDS011;12207;50.076;8.848;2023-10-09T14:26:40;409.52;;;132.05;;
23995;SDS011;12207;50.076;8.848;2023-10-09T14:29:07;419.00;;;121.65;;
23995;SDS011;12207;50.076;8.848;2023-10-09T14:31:33;439.83;;;128.15;;
23995;SDS011;12207;50.076;8.848;2023-10-09T14:34:04;405.83;;;118.15;;
23995;SDS011;12207;50.076;8.848;2023-10-09T14:36:34;406.30;;;127.10;;
23995;SDS011;12207;50.076;8.848;2023-10-09T14:39:00;427.30;;;123.20;;
23995;SDS011;12207;50.076;8.848;2023-10-09T14:41:28;406.40;;;125.15;;
23995;SDS011;12207;50.076;8.848;2023-10-09T14:43:58;406.48;;;121.00;;
23995;SDS011;12207;50.076;8.848;2023-10-09T14:46:24;419.70;;;121.03;;
23995;SDS011;12207;50.076;8.848;2023-10-09T14:48:51;407.23;;;122.55;;
23995;SDS011;12207;50.076;8.848;2023-10-09T14:51:22;416.50;;;125.70;;
23995;SDS011;12207;50.076;8.848;2023-10-09T14:53:55;398.83;;;120.50;;
23995;SDS011;12207;50.076;8.848;2023-10-09T14:56:28;400.95;;;123.25;;
23995;SDS011;12207;50.076;8.848;2023-10-09T14:58:55;405.75;;;126.82;;
23995;SDS011;12207;50.076;8.848;2023-10-09T15:01:25;406.83;;;126.78;;
23995;SDS011;12207;50.076;8.848;2023-10-09T15:03:54;421.08;;;123.35;;
23995;SDS011;12207;50.076;8.848;2023-10-09T15:06:23;426.25;;;120.55;;
23995;SDS011;12207;50.076;8.848;2023-10-09T15:08:58;397.80;;;118.65;;
23995;SDS011;12207;50.076;8.848;2023-10-09T15:11:33;425.83;;;128.25;;
23995;SDS011;12207;50.076;8.848;2023-10-09T15:13:59;411.23;;;126.32;;
23995;SDS011;12207;50.076;8.848;2023-10-09T15:16:25;429.15;;;128.27;;
23995;SDS011;12207;50.076;8.848;2023-10-09T15:18:54;420.98;;;123.50;;
23995;SDS011;12207;50.076;8.848;2023-10-09T15:21:27;407.77;;;122.07;;
23995;SDS011;12207;50.076;8.848;2023-10-09T15:23:57;408.85;;;123.10;;
23995;SDS011;12207;50.076;8.848;2023-10-09T15:26:24;416.40;;;121.97;;
23995;SDS011;12207;50.076;8.848;2023-10-09T15:28:53;407.65;;;117.55;;